createdAt,value
2022-08-07T00:01:12.467Z,7.78
2022-08-07T00:03:50.659Z,7.95
2022-08-07T00:06:17.556Z,7.32
2022-08-07T00:08:47.297Z,7.60
2022-08-07T00:11:13.974Z,6.35
2022-08-07T00:13:47.924Z,7.72
2022-08-07T00:16:17.415Z,7.78
2022-08-07T00:18:48.166Z,8.20
2022-08-07T00:21:57.084Z,8.90
2022-08-07T00:24:01.714Z,8.65
2022-08-07T00:26:59.503Z,9.98
2022-08-07T00:29:15.349Z,12.05
2022-08-07T00:31:42.718Z,10.30
2022-08-07T00:34:10.061Z,12.85
2022-08-07T00:36:42.664Z,11.98
2022-08-07T00:39:12.822Z,13.63
2022-08-07T00:41:53.832Z,13.18
2022-08-07T00:44:28.148Z,11.02
2022-08-07T00:46:55.515Z,13.45
2022-08-07T00:49:24.757Z,12.25
2022-08-07T00:52:09.829Z,11.10
2022-08-07T00:54:36.641Z,12.07
2022-08-07T00:57:07.431Z,11.88
2022-08-07T00:59:37.661Z,11.40
2022-08-07T01:02:06.244Z,11.45
2022-08-07T01:04:42.901Z,11.18
2022-08-07T01:07:10.874Z,12.43
2022-08-07T01:10:04.687Z,12.30
2022-08-07T01:12:30.208Z,11.20
2022-08-07T01:15:01.468Z,11.50
2022-08-07T01:17:34.635Z,11.18
2022-08-07T01:20:10.394Z,10.68
2022-08-07T01:22:46.824Z,9.65
2022-08-07T01:25:53.589Z,10.05
2022-08-07T01:28:14.669Z,10.45
2022-08-07T01:30:41.286Z,10.80
2022-08-07T01:33:08.773Z,11.25
2022-08-07T01:35:52.893Z,11.18
2022-08-07T01:38:24.919Z,10.00
2022-08-07T01:40:57.579Z,9.63
2022-08-07T01:43:25.954Z,9.13
2022-08-07T01:45:54.536Z,9.90
2022-08-07T01:48:30.231Z,10.80
2022-08-07T01:51:00.409Z,9.30
2022-08-07T01:54:12.031Z,9.65
2022-08-07T01:56:55.203Z,9.00
2022-08-07T01:59:24.628Z,10.18
2022-08-07T02:02:04.267Z,8.90
2022-08-07T02:07:02.734Z,8.70
2022-08-07T02:09:33.808Z,8.50
2022-08-07T02:12:17.862Z,8.15
2022-08-07T02:14:50.515Z,8.63
2022-08-07T02:17:27.484Z,8.85
2022-08-07T02:20:07.591Z,8.00
2022-08-07T02:22:41.143Z,9.45
2022-08-07T02:25:13.964Z,8.75
2022-08-07T02:27:44.662Z,8.52
2022-08-07T02:30:19.175Z,7.90
2022-08-07T02:33:03.851Z,8.18
2022-08-07T02:36:29.540Z,9.38
2022-08-07T02:38:28.156Z,7.72
2022-08-07T02:40:58.734Z,9.95
2022-08-07T02:43:26.563Z,10.30
2022-08-07T02:45:58.511Z,9.20
2022-08-07T02:48:28.211Z,10.23
2022-08-07T02:50:55.210Z,9.23
2022-08-07T02:53:27.430Z,10.00
2022-08-07T02:56:04.371Z,10.70
2022-08-07T02:58:33.510Z,10.20
2022-08-07T03:01:00.490Z,8.82
2022-08-07T03:03:29.607Z,10.10
2022-08-07T03:06:16.589Z,9.52
2022-08-07T03:08:52.552Z,9.57
2022-08-07T03:11:19.558Z,9.40
2022-08-07T03:13:51.904Z,9.23
2022-08-07T03:16:27.811Z,8.95
2022-08-07T03:18:54.660Z,7.78
2022-08-07T03:21:22.566Z,7.15
2022-08-07T03:24:20.524Z,7.75
2022-08-07T03:26:36.050Z,7.93
2022-08-07T03:29:16.849Z,7.25
2022-08-07T03:31:46.373Z,7.78
2022-08-07T03:34:18.585Z,7.75
2022-08-07T03:36:50.301Z,8.30
2022-08-07T03:39:17.078Z,9.85
2022-08-07T03:42:04.448Z,8.48
2022-08-07T03:44:34.652Z,8.75
2022-08-07T03:47:14.196Z,8.40
2022-08-07T03:49:49.921Z,8.30
2022-08-07T03:52:26.036Z,9.35
2022-08-07T03:59:05.520Z,9.20
2022-08-07T04:00:21.265Z,9.35
2022-08-07T04:02:58.015Z,8.07
2022-08-07T04:05:28.729Z,8.65
2022-08-07T04:08:06.590Z,8.05
2022-08-07T04:10:33.216Z,8.25
2022-08-07T04:13:05.314Z,7.95
2022-08-07T04:15:31.967Z,8.73
2022-08-07T04:18:57.463Z,8.80
2022-08-07T04:20:54.709Z,9.82
2022-08-07T04:23:21.873Z,9.10
2022-08-07T04:25:49.169Z,8.02
2022-08-07T04:28:15.899Z,8.07
2022-08-07T04:30:57.309Z,8.65
2022-08-07T04:33:25.661Z,8.43
2022-08-07T04:35:53.987Z,8.18
2022-08-07T04:38:21.250Z,8.77
2022-08-07T04:40:52.457Z,8.75
2022-08-07T04:44:12.566Z,8.07
2022-08-07T04:46:40.019Z,7.97
2022-08-07T04:50:03.900Z,8.32
2022-08-07T04:52:37.627Z,9.30
2022-08-07T04:58:10.696Z,7.80
2022-08-07T04:59:15.857Z,8.00
2022-08-07T05:01:46.795Z,8.25
2022-08-07T05:04:21.383Z,7.63
2022-08-07T05:06:59.200Z,7.28
2022-08-07T05:09:58.510Z,7.90
2022-08-07T05:12:32.085Z,7.45
2022-08-07T05:15:23.039Z,6.28
2022-08-07T05:17:55.131Z,6.50
2022-08-07T05:20:27.039Z,5.60
2022-08-07T05:22:57.135Z,5.47
2022-08-07T05:25:25.925Z,5.00
2022-08-07T05:28:20.096Z,5.22
2022-08-07T05:30:49.912Z,3.95
2022-08-07T05:33:20.835Z,4.70
2022-08-07T05:35:48.960Z,5.97
2022-08-07T05:38:59.660Z,5.45
2022-08-07T05:41:05.332Z,5.43
2022-08-07T05:44:08.493Z,7.38
2022-08-07T05:46:29.373Z,30.58
2022-08-07T05:48:58.229Z,35.17
2022-08-07T05:51:26.254Z,36.55
2022-08-07T05:54:13.263Z,213.77
2022-08-07T05:56:45.012Z,308.77
2022-08-07T05:59:15.201Z,94.63
2022-08-07T06:01:42.270Z,177.38
2022-08-07T06:04:09.066Z,6.93
2022-08-07T06:06:35.716Z,8.90
2022-08-07T06:09:04.721Z,18.67
2022-08-07T06:11:32.941Z,5.85
2022-08-07T06:14:12.047Z,10.13
2022-08-07T06:16:50.576Z,3.65
2022-08-07T06:19:58.396Z,3.28
2022-08-07T06:22:14.841Z,2.72
2022-08-07T06:24:57.010Z,2.85
2022-08-07T06:28:00.391Z,2.63
2022-08-07T06:30:32.160Z,2.75
2022-08-07T06:32:59.159Z,2.60
2022-08-07T06:35:30.645Z,2.80
2022-08-07T06:38:20.064Z,2.55
2022-08-07T06:40:50.178Z,2.13
2022-08-07T06:43:21.697Z,2.30
2022-08-07T06:45:49.094Z,2.20
2022-08-07T06:48:15.844Z,2.33
2022-08-07T06:50:51.783Z,2.00
2022-08-07T06:53:49.192Z,2.35
2022-08-07T06:56:07.445Z,2.10
2022-08-07T07:00:12.467Z,2.00
2022-08-07T07:01:33.191Z,2.20
2022-08-07T07:04:28.546Z,2.42
2022-08-07T07:07:01.001Z,2.15
2022-08-07T07:09:30.941Z,2.80
2022-08-07T07:12:16.559Z,2.85
2022-08-07T07:15:03.651Z,2.83
2022-08-07T07:17:39.064Z,2.92
2022-08-07T07:20:23.528Z,2.60
2022-08-07T07:24:06.133Z,2.75
2022-08-07T07:26:32.687Z,3.10
2022-08-07T07:28:48.339Z,2.42
2022-08-07T07:31:30.305Z,2.85
2022-08-07T07:34:08.661Z,3.28
2022-08-07T07:36:40.462Z,3.10
2022-08-07T07:39:07.381Z,3.25
2022-08-07T07:42:01.927Z,3.33
2022-08-07T07:44:25.978Z,2.70
2022-08-07T07:46:56.145Z,3.33
2022-08-07T07:50:33.221Z,3.77
2022-08-07T07:52:16.104Z,3.83
2022-08-07T07:54:44.173Z,3.75
2022-08-07T07:57:21.116Z,3.55
2022-08-07T08:00:09.331Z,3.10
2022-08-07T08:02:36.127Z,3.40
2022-08-07T08:05:04.395Z,2.90
2022-08-07T08:07:35.358Z,3.70
2022-08-07T08:10:09.122Z,3.72
2022-08-07T08:12:52.258Z,4.03
2022-08-07T08:15:27.258Z,3.20
2022-08-07T08:18:18.032Z,3.70
2022-08-07T08:20:45.398Z,3.08
2022-08-07T08:23:33.099Z,3.33
2022-08-07T08:26:21.573Z,2.45
2022-08-07T08:28:51.193Z,3.00
2022-08-07T08:31:30.407Z,2.90
2022-08-07T08:34:12.509Z,3.10
2022-08-07T08:36:57.707Z,3.05
2022-08-07T08:39:25.365Z,3.35
2022-08-07T08:42:18.351Z,3.30
2022-08-07T08:44:54.709Z,3.00
2022-08-07T08:47:54.796Z,3.00
2022-08-07T08:50:38.866Z,3.28
2022-08-07T08:53:13.565Z,3.05
2022-08-07T08:55:54.730Z,3.28
2022-08-07T08:59:06.511Z,2.92
2022-08-07T09:02:08.910Z,2.93
2022-08-07T09:04:43.777Z,3.35
2022-08-07T09:07:23.278Z,3.10
2022-08-07T09:09:56.633Z,2.70
2022-08-07T09:13:00.857Z,3.22
2022-08-07T09:16:21.840Z,4.90
2022-08-07T09:18:33.615Z,3.35
2022-08-07T09:21:57.921Z,2.60
2022-08-07T09:24:55.077Z,2.40
2022-08-07T09:27:59.753Z,2.78
2022-08-07T09:30:54.593Z,2.70
2022-08-07T09:33:53.075Z,2.78
2022-08-07T09:36:35.330Z,2.90
2022-08-07T09:39:54.506Z,2.63
2022-08-07T09:42:43.120Z,2.63
2022-08-07T09:47:52.543Z,2.13
2022-08-07T09:49:09.421Z,2.67
2022-08-07T09:52:16.113Z,2.72
2022-08-07T09:55:29.310Z,3.10
2022-08-07T09:58:32.010Z,2.92
2022-08-07T10:01:23.295Z,2.25
2022-08-07T10:04:32.652Z,2.30
2022-08-07T10:07:39.710Z,2.15
2022-08-07T10:10:22.794Z,2.33
2022-08-07T10:13:06.241Z,2.72
2022-08-07T10:15:59.969Z,2.20
2022-08-07T10:21:50.767Z,3.78
2022-08-07T10:24:08.624Z,2.83
2022-08-07T10:26:53.044Z,3.40
2022-08-07T10:29:59.391Z,3.10
2022-08-07T10:32:52.451Z,4.00
2022-08-07T10:35:56.860Z,3.00
2022-08-07T10:38:41.143Z,3.10
2022-08-07T10:41:46.288Z,2.90
2022-08-07T10:44:45.240Z,2.45
2022-08-07T10:47:14.161Z,2.50
2022-08-07T10:49:45.284Z,3.22
2022-08-07T10:52:51.302Z,3.10
2022-08-07T10:55:36.868Z,3.65
2022-08-07T11:26:24.248Z,3.90
2022-08-07T11:28:55.170Z,3.00
2022-08-07T11:31:41.594Z,2.70
2022-08-07T11:34:24.925Z,2.85
2022-08-07T11:37:03.012Z,2.95
2022-08-07T11:39:59.912Z,2.35
2022-08-07T11:42:55.309Z,2.60
2022-08-07T11:45:53.664Z,2.80
2022-08-07T11:49:27.565Z,2.20
2022-08-07T11:51:59.276Z,2.33
2022-08-07T11:55:00.097Z,2.60
2022-08-07T11:58:00.401Z,2.60
2022-08-07T12:01:08.289Z,2.83
2022-08-07T12:03:47.147Z,2.40
2022-08-07T12:07:00.980Z,2.15
2022-08-07T12:09:47.702Z,2.50
2022-08-07T12:12:19.619Z,2.30
2022-08-07T12:15:01.325Z,2.60
2022-08-07T12:17:34.311Z,3.00
2022-08-07T12:20:30.150Z,2.50
2022-08-07T12:23:14.435Z,2.80
2022-08-07T12:26:02.978Z,2.72
2022-08-07T12:28:52.942Z,2.40
2022-08-07T12:31:53.127Z,2.60
2022-08-07T12:36:53.719Z,3.00
2022-08-07T12:39:42.479Z,3.00
2022-08-07T12:42:08.027Z,3.20
2022-08-07T12:44:34.840Z,2.85
2022-08-07T12:47:21.864Z,2.47
2022-08-07T12:50:38.078Z,2.65
2022-08-07T12:53:28.726Z,3.08
2022-08-07T12:56:41.435Z,2.95
2022-08-07T12:59:08.973Z,2.80
2022-08-07T13:02:27.019Z,2.85
2022-08-07T13:05:14.686Z,2.78
2022-08-07T13:08:22.267Z,2.90
2022-08-07T13:11:31.534Z,2.38
2022-08-07T13:14:50.910Z,2.28
2022-08-07T13:17:39.897Z,2.50
2022-08-07T13:20:34.987Z,2.15
2022-08-07T13:23:59.840Z,2.10
2022-08-07T13:26:00.633Z,2.10
2022-08-07T13:29:03.612Z,1.95
2022-08-07T13:32:32.080Z,2.17
2022-08-07T13:34:59.271Z,1.95
2022-08-07T13:37:58.514Z,2.10
2022-08-07T13:40:49.916Z,2.00
2022-08-07T13:43:21.539Z,1.92
2022-08-07T13:46:21.568Z,1.85
2022-08-07T13:48:39.677Z,1.90
2022-08-07T13:51:28.210Z,2.00
2022-08-07T13:54:02.132Z,1.60
2022-08-07T13:56:35.913Z,1.70
2022-08-07T13:59:13.896Z,1.83
2022-08-07T14:02:03.425Z,1.80
2022-08-07T14:04:35.452Z,1.60
2022-08-07T14:07:05.963Z,1.95
2022-08-07T14:10:01.533Z,1.95
2022-08-07T14:12:27.565Z,1.90
2022-08-07T14:15:00.635Z,1.80
2022-08-07T14:18:12.486Z,1.75
2022-08-07T14:20:42.906Z,1.80
2022-08-07T14:23:31.366Z,1.75
2022-08-07T14:29:06.021Z,1.90
2022-08-07T14:31:55.973Z,1.75
2022-08-07T14:34:29.191Z,1.85
2022-08-07T14:36:56.976Z,1.85
2022-08-07T14:40:16.665Z,1.98
2022-08-07T14:42:19.758Z,2.05
2022-08-07T14:44:52.715Z,1.80
2022-08-07T14:47:20.008Z,1.70
2022-08-07T14:52:38.094Z,1.58
2022-08-07T14:55:05.830Z,1.67
2022-08-07T15:00:30.461Z,1.60
2022-08-07T15:05:54.371Z,1.52
2022-08-07T15:08:34.008Z,1.63
2022-08-07T15:11:08.686Z,1.60
2022-08-07T15:13:47.035Z,1.70
2022-08-07T15:16:19.777Z,1.75
2022-08-07T15:25:16.169Z,1.88
2022-08-07T15:27:26.301Z,1.80
2022-08-07T15:33:01.465Z,1.92
2022-08-07T15:36:01.630Z,1.95
2022-08-07T15:38:30.738Z,1.92
2022-08-07T15:43:57.296Z,1.80
2022-08-07T15:46:32.110Z,2.10
2022-08-07T15:49:13.064Z,1.95
2022-08-07T15:54:26.403Z,2.33
2022-08-07T15:56:53.052Z,2.30
2022-08-07T15:59:20.398Z,2.08
2022-08-07T16:02:07.206Z,1.73
2022-08-07T16:04:36.112Z,2.20
2022-08-07T16:08:28.317Z,2.03
2022-08-07T16:09:54.586Z,2.40
2022-08-07T16:13:17.999Z,2.28
2022-08-07T16:16:42.954Z,2.25
2022-08-07T16:19:43.166Z,1.80
2022-08-07T16:22:54.998Z,1.85
2022-08-07T16:25:54.692Z,1.90
2022-08-07T16:30:05.842Z,2.22
2022-08-07T16:31:57.576Z,2.20
2022-08-07T16:34:32.166Z,2.03
2022-08-07T16:38:06.586Z,2.15
2022-08-07T16:40:23.316Z,2.28
2022-08-07T16:43:14.024Z,2.08
2022-08-07T16:46:47.583Z,2.60
2022-08-07T16:49:04.292Z,2.53
2022-08-07T16:51:57.594Z,2.03
2022-08-07T16:54:54.961Z,2.05
2022-08-07T16:58:02.185Z,2.08
2022-08-07T17:00:29.902Z,2.08
2022-08-07T17:03:17.464Z,2.08
2022-08-07T17:06:18.971Z,2.25
2022-08-07T17:09:10.807Z,2.15
2022-08-07T17:12:34.422Z,2.20
2022-08-07T17:15:00.740Z,2.00
2022-08-07T17:17:48.565Z,1.90
2022-08-07T17:20:41.729Z,2.00
2022-08-07T17:23:32.257Z,2.10
2022-08-07T17:26:22.839Z,1.85
2022-08-07T17:30:14.177Z,1.90
2022-08-07T17:32:30.114Z,2.00
2022-08-07T17:35:51.058Z,2.08
2022-08-07T17:38:32.220Z,2.00
2022-08-07T17:42:02.532Z,1.90
2022-08-07T17:44:33.803Z,2.05
2022-08-07T17:47:16.979Z,2.15
2022-08-07T17:50:00.735Z,1.83
2022-08-07T17:52:58.956Z,2.25
2022-08-07T17:56:00.504Z,1.98
2022-08-07T17:58:31.870Z,2.15
2022-08-07T18:00:59.722Z,1.77
2022-08-07T18:04:16.700Z,1.88
2022-08-07T18:07:20.966Z,1.88
2022-08-07T18:10:05.758Z,2.17
2022-08-07T18:15:17.801Z,1.98
2022-08-07T18:18:44.806Z,1.83
2022-08-07T18:21:42.357Z,1.70
2022-08-07T18:24:07.736Z,2.08
2022-08-07T18:27:17.122Z,1.67
2022-08-07T18:30:05.703Z,1.80
2022-08-07T18:32:46.313Z,2.15
2022-08-07T18:35:55.842Z,2.38
2022-08-07T18:38:55.557Z,2.03
2022-08-07T18:41:54.361Z,2.00
2022-08-07T18:44:30.872Z,2.42
2022-08-07T18:47:22.785Z,2.00
2022-08-07T18:50:39.267Z,2.20
2022-08-07T18:53:13.914Z,2.13
2022-08-07T18:55:55.819Z,2.08
2022-08-07T18:58:38.365Z,1.90
2022-08-07T19:02:17.452Z,2.47
2022-08-07T19:04:57.627Z,2.20
2022-08-07T19:08:07.241Z,2.10
2022-08-07T19:10:51.294Z,2.13
2022-08-07T19:13:40.772Z,2.17
2022-08-07T19:17:01.527Z,2.05
2022-08-07T19:19:39.263Z,2.07
2022-08-07T19:22:34.171Z,2.25
2022-08-07T19:25:05.647Z,2.00
2022-08-07T19:28:57.031Z,1.90
2022-08-07T19:31:00.136Z,2.13
2022-08-07T19:33:10.283Z,2.22
2022-08-07T19:35:40.306Z,2.15
2022-08-07T19:38:17.250Z,2.00
2022-08-07T19:40:49.337Z,2.00
2022-08-07T19:43:45.541Z,2.05
2022-08-07T19:46:18.992Z,2.78
2022-08-07T19:48:57.398Z,2.60
2022-08-07T19:51:53.231Z,2.53
2022-08-07T19:54:35.000Z,2.35
2022-08-07T19:58:00.655Z,2.55
2022-08-07T19:59:57.966Z,2.30
2022-08-07T20:02:51.651Z,2.20
2022-08-07T20:05:28.157Z,2.17
2022-08-07T20:08:01.065Z,2.30
2022-08-07T20:10:55.283Z,2.40
2022-08-07T20:13:42.484Z,2.53
2022-08-07T20:16:15.802Z,2.30
2022-08-07T20:18:57.901Z,2.50
2022-08-07T20:21:25.169Z,2.30
2022-08-07T20:23:58.008Z,2.53
2022-08-07T20:26:32.748Z,2.60
2022-08-07T20:29:24.446Z,2.20
2022-08-07T20:32:02.380Z,2.60
2022-08-07T20:34:49.710Z,2.22
2022-08-07T20:37:16.535Z,2.28
2022-08-07T20:40:03.265Z,2.08
2022-08-07T20:42:30.296Z,2.25
2022-08-07T20:44:59.287Z,2.10
2022-08-07T20:47:26.029Z,2.40
2022-08-07T20:50:12.778Z,2.20
2022-08-07T20:52:51.896Z,2.03
2022-08-07T20:55:23.885Z,1.88
2022-08-07T20:58:03.393Z,1.90
2022-08-07T21:00:42.474Z,2.00
2022-08-07T21:03:09.862Z,1.80
2022-08-07T21:05:51.104Z,2.22
2022-08-07T21:08:37.876Z,2.10
2022-08-07T21:11:12.424Z,2.33
2022-08-07T21:14:16.194Z,2.38
2022-08-07T21:18:03.737Z,1.90
2022-08-07T21:20:04.834Z,1.65
2022-08-07T21:22:34.771Z,2.10
2022-08-07T21:25:19.683Z,2.58
2022-08-07T21:28:09.604Z,1.98
2022-08-07T21:30:48.973Z,2.67
2022-08-07T21:33:19.431Z,2.20
2022-08-07T21:36:05.087Z,1.88
2022-08-07T21:38:49.849Z,1.98
2022-08-07T21:41:24.820Z,2.38
2022-08-07T21:44:29.976Z,2.00
2022-08-07T21:47:19.680Z,2.10
2022-08-07T21:50:01.966Z,2.50
2022-08-07T21:52:48.244Z,2.03
2022-08-07T21:55:28.193Z,2.35
2022-08-07T21:58:32.237Z,2.10
2022-08-07T22:01:03.030Z,2.35
2022-08-07T22:03:46.627Z,2.08
2022-08-07T22:06:30.889Z,2.25
2022-08-07T22:09:07.231Z,2.22
2022-08-07T22:12:05.071Z,2.30
2022-08-07T22:14:34.864Z,2.40
2022-08-07T22:17:04.095Z,2.00
2022-08-07T22:20:06.994Z,2.38
2022-08-07T22:22:47.235Z,1.88
2022-08-07T22:25:19.638Z,2.42
2022-08-07T22:28:20.323Z,2.70
2022-08-07T22:30:54.658Z,2.38
2022-08-07T22:33:50.957Z,2.30
2022-08-07T22:36:33.256Z,1.98
2022-08-07T22:39:07.679Z,2.15
2022-08-07T22:42:03.772Z,2.38
2022-08-07T22:44:25.178Z,2.10
2022-08-07T22:47:08.639Z,2.10
2022-08-07T22:49:51.889Z,2.20
2022-08-07T22:53:15.208Z,2.05
2022-08-07T22:56:00.763Z,2.47
2022-08-07T23:02:00.485Z,2.20
2022-08-07T23:07:40.312Z,2.60
2022-08-07T23:10:42.606Z,2.92
2022-08-07T23:13:48.682Z,2.50
2022-08-07T23:16:48.485Z,2.13
2022-08-07T23:19:51.402Z,2.30
2022-08-07T23:22:56.711Z,2.20
2022-08-07T23:26:01.724Z,1.80
2022-08-07T23:28:54.579Z,2.08
2022-08-07T23:34:19.954Z,2.08
2022-08-07T23:34:42.691Z,1.83
2022-08-07T23:38:00.438Z,2.25
2022-08-07T23:40:39.614Z,2.00
2022-08-07T23:43:38.035Z,2.00
2022-08-07T23:46:37.574Z,2.00
2022-08-07T23:49:19.423Z,2.17
2022-08-07T23:53:01.231Z,1.90
2022-08-07T23:55:12.275Z,1.92
2022-08-07T23:58:04.326Z,2.25
